Search for airport 
image banner adimage banner adimage banner ad
image banner ad

73PN - Finkhaven

Located in Trout Run, United States

ICAO - 73PN, IATA -

Data provided by Airmate  

General information

Coordinates: N41°22'6" W77°4'16"
Elevation is 640 feet MSL.
Magnetic variation is -11° East
View others Airports in Pennsylvania

Operational data

Special qualification required
Current time UTC:
Current local time:
Weather at : KIPT - Williamsport Rgnl ( 19 km )
METAR: KIPT 071354Z 00000KT 10SM OVC070 10/03 A2990 RMK AO2 SLP127 T01000033
TAF: KIPT 071127Z 0712/0812 08005KT P6SM SCT100 BKN250 FM071900 13006KT P6SM -RA OVC050 FM072200 08006KT 5SM -RA BR OVC030 FM080500 26006KT P6SM BKN035
View NOTAMs / SUP AIP / TFR affecting this airport [VIEW]
Communications frequencies: [VIEW]

Runways:

RWY identifierQFULength (ft)Width (ft)SurfaceLDA (ft)
061500100GRASS
241500100GRASS

Airport contact information

Address: Trout Run United States

Satellite view of 73PN